sensor_id;sensor_type;location;lat;lon;timestamp;temperature;humidity
31809;DHT22;18379;48.208;-1.518;2023-05-29T00:01:03;16.10;99.90
31809;DHT22;18379;48.208;-1.518;2023-05-29T00:06:04;16.10;99.90
31809;DHT22;18379;48.208;-1.518;2023-05-29T00:11:06;16.10;99.90
31809;DHT22;18379;48.208;-1.518;2023-05-29T00:16:07;16.00;99.90
31809;DHT22;18379;48.208;-1.518;2023-05-29T00:21:09;15.90;99.90
31809;DHT22;18379;48.208;-1.518;2023-05-29T00:26:10;16.00;99.90
31809;DHT22;18379;48.208;-1.518;2023-05-29T00:31:12;15.90;99.90
31809;DHT22;18379;48.208;-1.518;2023-05-29T00:36:13;15.90;99.90
31809;DHT22;18379;48.208;-1.518;2023-05-29T00:41:15;15.80;99.90
31809;DHT22;18379;48.208;-1.518;2023-05-29T00:46:16;15.80;99.90
31809;DHT22;18379;48.208;-1.518;2023-05-29T00:51:17;15.80;99.90
31809;DHT22;18379;48.208;-1.518;2023-05-29T00:56:18;15.80;99.90
31809;DHT22;18379;48.208;-1.518;2023-05-29T01:01:21;15.70;99.90
31809;DHT22;18379;48.208;-1.518;2023-05-29T01:06:22;15.70;99.90
31809;DHT22;18379;48.208;-1.518;2023-05-29T01:16:59;15.70;99.90
31809;DHT22;18379;48.208;-1.518;2023-05-29T01:22:22;15.60;99.90
31809;DHT22;18379;48.208;-1.518;2023-05-29T01:27:28;15.50;99.90
31809;DHT22;18379;48.208;-1.518;2023-05-29T01:32:36;15.50;99.90
31809;DHT22;18379;48.208;-1.518;2023-05-29T01:37:37;15.50;99.90
31809;DHT22;18379;48.208;-1.518;2023-05-29T01:42:39;15.40;99.90
31809;DHT22;18379;48.208;-1.518;2023-05-29T01:47:40;15.30;99.90
31809;DHT22;18379;48.208;-1.518;2023-05-29T01:52:41;15.30;99.90
31809;DHT22;18379;48.208;-1.518;2023-05-29T01:57:42;15.20;99.90
31809;DHT22;18379;48.208;-1.518;2023-05-29T02:02:44;15.10;99.90
31809;DHT22;18379;48.208;-1.518;2023-05-29T02:07:48;15.10;99.90
31809;DHT22;18379;48.208;-1.518;2023-05-29T02:12:49;15.10;99.90
31809;DHT22;18379;48.208;-1.518;2023-05-29T02:17:50;15.00;99.90
31809;DHT22;18379;48.208;-1.518;2023-05-29T02:22:50;15.00;99.90
31809;DHT22;18379;48.208;-1.518;2023-05-29T02:27:51;15.00;99.90
31809;DHT22;18379;48.208;-1.518;2023-05-29T02:32:52;14.90;99.90
31809;DHT22;18379;48.208;-1.518;2023-05-29T02:37:53;14.90;99.90
31809;DHT22;18379;48.208;-1.518;2023-05-29T02:42:54;14.90;99.90
31809;DHT22;18379;48.208;-1.518;2023-05-29T02:47:54;14.80;99.90
31809;DHT22;18379;48.208;-1.518;2023-05-29T02:52:55;14.70;99.90
31809;DHT22;18379;48.208;-1.518;2023-05-29T02:57:56;14.60;99.90
31809;DHT22;18379;48.208;-1.518;2023-05-29T03:02:57;14.60;99.90
31809;DHT22;18379;48.208;-1.518;2023-05-29T03:07:58;14.60;99.90
31809;DHT22;18379;48.208;-1.518;2023-05-29T03:12:59;14.50;99.90
31809;DHT22;18379;48.208;-1.518;2023-05-29T03:18:00;14.50;99.90
31809;DHT22;18379;48.208;-1.518;2023-05-29T03:23:01;14.30;99.90
31809;DHT22;18379;48.208;-1.518;2023-05-29T03:28:01;14.30;99.90
31809;DHT22;18379;48.208;-1.518;2023-05-29T03:33:02;14.10;99.90
31809;DHT22;18379;48.208;-1.518;2023-05-29T03:38:04;14.10;99.90
31809;DHT22;18379;48.208;-1.518;2023-05-29T03:43:04;14.00;99.90
31809;DHT22;18379;48.208;-1.518;2023-05-29T03:48:05;13.90;99.90
31809;DHT22;18379;48.208;-1.518;2023-05-29T03:53:06;13.90;99.90
31809;DHT22;18379;48.208;-1.518;2023-05-29T03:58:07;13.90;99.90
31809;DHT22;18379;48.208;-1.518;2023-05-29T04:03:08;13.80;99.90
31809;DHT22;18379;48.208;-1.518;2023-05-29T04:08:09;13.80;99.90
31809;DHT22;18379;48.208;-1.518;2023-05-29T04:13:11;13.80;99.90
31809;DHT22;18379;48.208;-1.518;2023-05-29T04:18:12;13.70;99.90
31809;DHT22;18379;48.208;-1.518;2023-05-29T04:23:13;13.70;99.90
31809;DHT22;18379;48.208;-1.518;2023-05-29T04:28:14;13.70;99.90
31809;DHT22;18379;48.208;-1.518;2023-05-29T04:33:17;13.70;99.90
31809;DHT22;18379;48.208;-1.518;2023-05-29T04:38:18;13.70;99.90
31809;DHT22;18379;48.208;-1.518;2023-05-29T04:43:25;13.70;99.90
31809;DHT22;18379;48.208;-1.518;2023-05-29T04:48:29;13.70;99.90
31809;DHT22;18379;48.208;-1.518;2023-05-29T04:53:30;13.70;99.90
31809;DHT22;18379;48.208;-1.518;2023-05-29T04:58:31;13.70;99.90
31809;DHT22;18379;48.208;-1.518;2023-05-29T05:03:32;13.70;99.90
31809;DHT22;18379;48.208;-1.518;2023-05-29T05:08:34;13.70;99.90
31809;DHT22;18379;48.208;-1.518;2023-05-29T05:13:35;13.80;99.90
31809;DHT22;18379;48.208;-1.518;2023-05-29T05:18:36;13.70;99.90
31809;DHT22;18379;48.208;-1.518;2023-05-29T05:23:38;13.80;99.90
31809;DHT22;18379;48.208;-1.518;2023-05-29T05:28:38;13.80;99.90
31809;DHT22;18379;48.208;-1.518;2023-05-29T05:33:39;13.80;99.90
31809;DHT22;18379;48.208;-1.518;2023-05-29T05:38:40;13.80;99.90
31809;DHT22;18379;48.208;-1.518;2023-05-29T05:43:41;13.90;99.90
31809;DHT22;18379;48.208;-1.518;2023-05-29T05:48:42;13.90;99.90
31809;DHT22;18379;48.208;-1.518;2023-05-29T05:53:42;13.90;99.90
31809;DHT22;18379;48.208;-1.518;2023-05-29T05:58:43;13.90;99.90
31809;DHT22;18379;48.208;-1.518;2023-05-29T06:03:44;14.00;99.90
31809;DHT22;18379;48.208;-1.518;2023-05-29T06:08:46;14.00;99.90
31809;DHT22;18379;48.208;-1.518;2023-05-29T06:13:47;14.20;99.90
31809;DHT22;18379;48.208;-1.518;2023-05-29T06:18:48;14.20;99.90
31809;DHT22;18379;48.208;-1.518;2023-05-29T06:23:48;14.40;99.90
31809;DHT22;18379;48.208;-1.518;2023-05-29T06:28:50;14.50;99.90
31809;DHT22;18379;48.208;-1.518;2023-05-29T06:33:50;14.70;99.90
31809;DHT22;18379;48.208;-1.518;2023-05-29T06:38:51;15.00;99.90
31809;DHT22;18379;48.208;-1.518;2023-05-29T06:43:52;15.00;99.90
31809;DHT22;18379;48.208;-1.518;2023-05-29T06:48:53;15.40;99.90
31809;DHT22;18379;48.208;-1.518;2023-05-29T06:53:54;15.30;99.90
31809;DHT22;18379;48.208;-1.518;2023-05-29T06:58:55;15.30;99.90
31809;DHT22;18379;48.208;-1.518;2023-05-29T07:03:56;15.40;99.90
31809;DHT22;18379;48.208;-1.518;2023-05-29T07:09:00;15.30;99.90
31809;DHT22;18379;48.208;-1.518;2023-05-29T07:14:00;15.70;99.90
31809;DHT22;18379;48.208;-1.518;2023-05-29T07:19:02;15.60;99.90
31809;DHT22;18379;48.208;-1.518;2023-05-29T07:24:03;15.70;99.90
31809;DHT22;18379;48.208;-1.518;2023-05-29T07:29:03;16.00;99.90
31809;DHT22;18379;48.208;-1.518;2023-05-29T07:34:04;16.20;99.90
31809;DHT22;18379;48.208;-1.518;2023-05-29T07:39:05;16.20;99.90
31809;DHT22;18379;48.208;-1.518;2023-05-29T07:44:08;16.00;99.90
31809;DHT22;18379;48.208;-1.518;2023-05-29T07:49:09;16.10;99.90
31809;DHT22;18379;48.208;-1.518;2023-05-29T07:54:09;16.20;99.90
31809;DHT22;18379;48.208;-1.518;2023-05-29T07:59:11;16.50;99.90
31809;DHT22;18379;48.208;-1.518;2023-05-29T08:04:11;16.70;99.90
31809;DHT22;18379;48.208;-1.518;2023-05-29T08:09:12;16.90;99.90
31809;DHT22;18379;48.208;-1.518;2023-05-29T08:14:14;16.80;99.90
31809;DHT22;18379;48.208;-1.518;2023-05-29T08:19:15;17.10;99.90
31809;DHT22;18379;48.208;-1.518;2023-05-29T08:24:16;17.10;99.90
31809;DHT22;18379;48.208;-1.518;2023-05-29T08:29:18;17.00;99.90
31809;DHT22;18379;48.208;-1.518;2023-05-29T08:34:19;17.20;99.90
31809;DHT22;18379;48.208;-1.518;2023-05-29T08:39:20;17.50;99.90
31809;DHT22;18379;48.208;-1.518;2023-05-29T08:44:22;17.70;99.90
31809;DHT22;18379;48.208;-1.518;2023-05-29T08:49:23;17.80;99.90
31809;DHT22;18379;48.208;-1.518;2023-05-29T08:54:26;18.00;99.90
31809;DHT22;18379;48.208;-1.518;2023-05-29T08:59:28;18.30;99.90
31809;DHT22;18379;48.208;-1.518;2023-05-29T09:04:30;18.30;99.90
31809;DHT22;18379;48.208;-1.518;2023-05-29T09:09:31;18.30;99.90
31809;DHT22;18379;48.208;-1.518;2023-05-29T09:14:40;18.80;99.90
31809;DHT22;18379;48.208;-1.518;2023-05-29T09:19:41;19.20;99.90
31809;DHT22;18379;48.208;-1.518;2023-05-29T09:24:46;19.60;99.90
31809;DHT22;18379;48.208;-1.518;2023-05-29T09:29:47;19.40;99.90
31809;DHT22;18379;48.208;-1.518;2023-05-29T09:34:48;19.60;99.90
31809;DHT22;18379;48.208;-1.518;2023-05-29T09:39:53;19.70;99.90
31809;DHT22;18379;48.208;-1.518;2023-05-29T09:44:54;20.30;99.90
31809;DHT22;18379;48.208;-1.518;2023-05-29T09:49:55;20.00;99.90
31809;DHT22;18379;48.208;-1.518;2023-05-29T09:54:57;19.80;99.90
31809;DHT22;18379;48.208;-1.518;2023-05-29T10:00:01;19.60;99.90
31809;DHT22;18379;48.208;-1.518;2023-05-29T10:05:04;19.60;99.90
31809;DHT22;18379;48.208;-1.518;2023-05-29T10:10:06;19.80;99.90
31809;DHT22;18379;48.208;-1.518;2023-05-29T10:15:12;20.20;99.90
31809;DHT22;18379;48.208;-1.518;2023-05-29T10:20:14;20.40;99.90
31809;DHT22;18379;48.208;-1.518;2023-05-29T10:25:20;20.70;99.90
31809;DHT22;18379;48.208;-1.518;2023-05-29T10:30:34;20.60;99.90
31809;DHT22;18379;48.208;-1.518;2023-05-29T10:36:21;20.60;99.90
31809;DHT22;18379;48.208;-1.518;2023-05-29T10:51:49;20.80;99.90
31809;DHT22;18379;48.208;-1.518;2023-05-29T10:57:00;20.60;99.90
31809;DHT22;18379;48.208;-1.518;2023-05-29T11:02:03;21.00;99.90
31809;DHT22;18379;48.208;-1.518;2023-05-29T11:07:06;21.10;99.90
31809;DHT22;18379;48.208;-1.518;2023-05-29T11:12:15;21.10;99.90
31809;DHT22;18379;48.208;-1.518;2023-05-29T11:17:44;21.70;99.90
31809;DHT22;18379;48.208;-1.518;2023-05-29T11:27:46;21.80;99.90
31809;DHT22;18379;48.208;-1.518;2023-05-29T11:32:47;22.20;99.90
31809;DHT22;18379;48.208;-1.518;2023-05-29T11:37:52;22.60;99.90
31809;DHT22;18379;48.208;-1.518;2023-05-29T11:42:54;22.60;99.90
31809;DHT22;18379;48.208;-1.518;2023-05-29T11:48:01;22.90;99.90
31809;DHT22;18379;48.208;-1.518;2023-05-29T11:53:02;23.20;99.90
31809;DHT22;18379;48.208;-1.518;2023-05-29T11:58:04;23.00;99.90
31809;DHT22;18379;48.208;-1.518;2023-05-29T12:03:05;23.00;99.90
31809;DHT22;18379;48.208;-1.518;2023-05-29T12:08:09;23.40;99.90
31809;DHT22;18379;48.208;-1.518;2023-05-29T12:13:10;23.70;99.90
31809;DHT22;18379;48.208;-1.518;2023-05-29T12:18:11;23.50;99.90
31809;DHT22;18379;48.208;-1.518;2023-05-29T12:23:12;23.30;99.90
31809;DHT22;18379;48.208;-1.518;2023-05-29T12:28:16;23.50;99.90
31809;DHT22;18379;48.208;-1.518;2023-05-29T12:33:32;23.80;99.90
31809;DHT22;18379;48.208;-1.518;2023-05-29T12:38:41;24.00;99.90
31809;DHT22;18379;48.208;-1.518;2023-05-29T12:43:46;23.60;99.90
31809;DHT22;18379;48.208;-1.518;2023-05-29T12:48:47;24.00;99.90
31809;DHT22;18379;48.208;-1.518;2023-05-29T12:53:47;24.40;99.90
31809;DHT22;18379;48.208;-1.518;2023-05-29T12:58:50;24.70;99.90
31809;DHT22;18379;48.208;-1.518;2023-05-29T13:03:51;24.40;99.90
31809;DHT22;18379;48.208;-1.518;2023-05-29T13:08:52;24.20;99.90
31809;DHT22;18379;48.208;-1.518;2023-05-29T13:13:53;24.50;99.90
31809;DHT22;18379;48.208;-1.518;2023-05-29T13:18:54;24.60;99.90
31809;DHT22;18379;48.208;-1.518;2023-05-29T13:23:55;24.80;99.90
31809;DHT22;18379;48.208;-1.518;2023-05-29T13:28:55;25.10;99.90
31809;DHT22;18379;48.208;-1.518;2023-05-29T13:33:56;24.60;99.90
31809;DHT22;18379;48.208;-1.518;2023-05-29T13:38:57;24.60;99.90
31809;DHT22;18379;48.208;-1.518;2023-05-29T13:43:58;25.30;99.90
31809;DHT22;18379;48.208;-1.518;2023-05-29T13:48:59;25.80;99.90
31809;DHT22;18379;48.208;-1.518;2023-05-29T13:54:00;25.70;99.90
31809;DHT22;18379;48.208;-1.518;2023-05-29T13:59:01;25.70;99.90
31809;DHT22;18379;48.208;-1.518;2023-05-29T14:04:05;26.00;99.90
31809;DHT22;18379;48.208;-1.518;2023-05-29T14:09:06;25.90;99.90
31809;DHT22;18379;48.208;-1.518;2023-05-29T14:14:10;25.80;99.90
31809;DHT22;18379;48.208;-1.518;2023-05-29T14:19:11;25.80;99.90
31809;DHT22;18379;48.208;-1.518;2023-05-29T14:24:12;26.50;99.90
31809;DHT22;18379;48.208;-1.518;2023-05-29T14:29:14;26.60;99.90
31809;DHT22;18379;48.208;-1.518;2023-05-29T14:34:15;26.60;99.90
31809;DHT22;18379;48.208;-1.518;2023-05-29T14:39:16;26.90;99.90
31809;DHT22;18379;48.208;-1.518;2023-05-29T14:44:16;25.90;99.90
31809;DHT22;18379;48.208;-1.518;2023-05-29T14:49:18;26.00;99.90
31809;DHT22;18379;48.208;-1.518;2023-05-29T14:54:20;27.00;99.90
31809;DHT22;18379;48.208;-1.518;2023-05-29T14:59:21;27.00;99.90
31809;DHT22;18379;48.208;-1.518;2023-05-29T15:04:22;27.00;99.90
31809;DHT22;18379;48.208;-1.518;2023-05-29T15:09:23;26.80;99.90
31809;DHT22;18379;48.208;-1.518;2023-05-29T15:14:23;27.20;99.90
31809;DHT22;18379;48.208;-1.518;2023-05-29T15:19:24;27.50;99.90
31809;DHT22;18379;48.208;-1.518;2023-05-29T15:24:25;26.10;99.90
31809;DHT22;18379;48.208;-1.518;2023-05-29T15:29:29;26.60;99.90
31809;DHT22;18379;48.208;-1.518;2023-05-29T15:34:34;26.60;99.90
31809;DHT22;18379;48.208;-1.518;2023-05-29T15:39:35;26.30;99.90
31809;DHT22;18379;48.208;-1.518;2023-05-29T15:44:38;26.50;99.90
31809;DHT22;18379;48.208;-1.518;2023-05-29T15:49:39;27.30;99.90
31809;DHT22;18379;48.208;-1.518;2023-05-29T15:54:40;27.20;99.90
31809;DHT22;18379;48.208;-1.518;2023-05-29T15:59:41;26.60;99.90
31809;DHT22;18379;48.208;-1.518;2023-05-29T16:04:41;26.50;99.90
31809;DHT22;18379;48.208;-1.518;2023-05-29T16:09:42;26.60;99.90
31809;DHT22;18379;48.208;-1.518;2023-05-29T16:14:44;26.80;99.90
31809;DHT22;18379;48.208;-1.518;2023-05-29T16:19:45;26.40;99.90
31809;DHT22;18379;48.208;-1.518;2023-05-29T16:24:45;26.30;99.90
31809;DHT22;18379;48.208;-1.518;2023-05-29T16:29:46;26.40;99.90
31809;DHT22;18379;48.208;-1.518;2023-05-29T16:34:47;26.10;99.90
31809;DHT22;18379;48.208;-1.518;2023-05-29T16:39:48;26.00;99.90
31809;DHT22;18379;48.208;-1.518;2023-05-29T16:44:49;26.30;99.90
31809;DHT22;18379;48.208;-1.518;2023-05-29T16:49:49;26.60;99.90
31809;DHT22;18379;48.208;-1.518;2023-05-29T16:54:50;26.40;99.90
31809;DHT22;18379;48.208;-1.518;2023-05-29T16:59:51;25.30;99.90
31809;DHT22;18379;48.208;-1.518;2023-05-29T17:04:53;25.30;99.90
31809;DHT22;18379;48.208;-1.518;2023-05-29T17:09:54;25.30;99.90
31809;DHT22;18379;48.208;-1.518;2023-05-29T17:14:55;25.30;99.90
31809;DHT22;18379;48.208;-1.518;2023-05-29T17:19:56;25.00;99.90
31809;DHT22;18379;48.208;-1.518;2023-05-29T17:24:57;24.90;99.90
31809;DHT22;18379;48.208;-1.518;2023-05-29T17:29:58;25.30;99.90
31809;DHT22;18379;48.208;-1.518;2023-05-29T17:35:02;24.90;99.90
31809;DHT22;18379;48.208;-1.518;2023-05-29T17:40:04;24.50;99.90
31809;DHT22;18379;48.208;-1.518;2023-05-29T17:45:05;24.20;99.90
31809;DHT22;18379;48.208;-1.518;2023-05-29T17:50:08;24.10;99.90
31809;DHT22;18379;48.208;-1.518;2023-05-29T17:55:09;24.20;99.90
31809;DHT22;18379;48.208;-1.518;2023-05-29T18:00:10;24.40;99.90
31809;DHT22;18379;48.208;-1.518;2023-05-29T18:05:12;23.70;99.90
31809;DHT22;18379;48.208;-1.518;2023-05-29T18:10:14;23.10;99.90
31809;DHT22;18379;48.208;-1.518;2023-05-29T18:15:21;22.80;99.90
31809;DHT22;18379;48.208;-1.518;2023-05-29T18:20:23;22.60;99.90
31809;DHT22;18379;48.208;-1.518;2023-05-29T18:25:29;22.10;99.90
31809;DHT22;18379;48.208;-1.518;2023-05-29T18:30:30;21.60;99.90
31809;DHT22;18379;48.208;-1.518;2023-05-29T18:35:31;21.30;99.90
31809;DHT22;18379;48.208;-1.518;2023-05-29T18:40:32;20.90;99.90
31809;DHT22;18379;48.208;-1.518;2023-05-29T18:45:33;20.40;99.90
31809;DHT22;18379;48.208;-1.518;2023-05-29T18:50:36;20.30;99.90
31809;DHT22;18379;48.208;-1.518;2023-05-29T18:55:37;19.90;99.90
31809;DHT22;18379;48.208;-1.518;2023-05-29T19:00:39;19.70;99.90
31809;DHT22;18379;48.208;-1.518;2023-05-29T19:05:40;19.40;99.90
31809;DHT22;18379;48.208;-1.518;2023-05-29T19:10:43;19.30;99.90
31809;DHT22;18379;48.208;-1.518;2023-05-29T19:15:45;19.20;99.90
31809;DHT22;18379;48.208;-1.518;2023-05-29T19:20:45;18.90;99.90
31809;DHT22;18379;48.208;-1.518;2023-05-29T19:25:46;18.80;99.90
31809;DHT22;18379;48.208;-1.518;2023-05-29T19:30:47;18.60;99.90
31809;DHT22;18379;48.208;-1.518;2023-05-29T19:35:48;18.40;99.90
31809;DHT22;18379;48.208;-1.518;2023-05-29T19:40:49;18.20;99.90
31809;DHT22;18379;48.208;-1.518;2023-05-29T19:45:50;18.00;99.90
31809;DHT22;18379;48.208;-1.518;2023-05-29T19:50:51;17.80;99.90
31809;DHT22;18379;48.208;-1.518;2023-05-29T19:55:52;17.70;99.90
31809;DHT22;18379;48.208;-1.518;2023-05-29T20:00:52;17.60;99.90
31809;DHT22;18379;48.208;-1.518;2023-05-29T20:05:55;17.50;99.90
31809;DHT22;18379;48.208;-1.518;2023-05-29T20:10:56;17.20;99.90
31809;DHT22;18379;48.208;-1.518;2023-05-29T20:16:00;17.00;99.90
31809;DHT22;18379;48.208;-1.518;2023-05-29T20:21:01;16.90;99.90
31809;DHT22;18379;48.208;-1.518;2023-05-29T20:26:02;16.70;99.90
31809;DHT22;18379;48.208;-1.518;2023-05-29T20:31:03;16.60;99.90
31809;DHT22;18379;48.208;-1.518;2023-05-29T20:36:04;16.50;99.90
31809;DHT22;18379;48.208;-1.518;2023-05-29T20:41:07;16.40;99.90
31809;DHT22;18379;48.208;-1.518;2023-05-29T20:46:09;16.20;99.90
31809;DHT22;18379;48.208;-1.518;2023-05-29T20:51:10;16.10;99.90
31809;DHT22;18379;48.208;-1.518;2023-05-29T20:56:11;15.90;99.90
31809;DHT22;18379;48.208;-1.518;2023-05-29T21:01:13;15.90;99.90
31809;DHT22;18379;48.208;-1.518;2023-05-29T21:06:15;15.80;99.90
31809;DHT22;18379;48.208;-1.518;2023-05-29T21:11:16;15.70;99.90
31809;DHT22;18379;48.208;-1.518;2023-05-29T21:16:18;15.60;99.90
31809;DHT22;18379;48.208;-1.518;2023-05-29T21:21:19;15.50;99.90
31809;DHT22;18379;48.208;-1.518;2023-05-29T21:26:20;15.40;99.90
31809;DHT22;18379;48.208;-1.518;2023-05-29T21:31:21;15.20;99.90
31809;DHT22;18379;48.208;-1.518;2023-05-29T21:36:22;15.10;99.90
31809;DHT22;18379;48.208;-1.518;2023-05-29T21:41:23;15.10;99.90
31809;DHT22;18379;48.208;-1.518;2023-05-29T21:46:24;15.00;99.90
31809;DHT22;18379;48.208;-1.518;2023-05-29T21:51:25;14.90;99.90
31809;DHT22;18379;48.208;-1.518;2023-05-29T21:56:26;14.80;99.90
31809;DHT22;18379;48.208;-1.518;2023-05-29T22:01:31;14.80;99.90
31809;DHT22;18379;48.208;-1.518;2023-05-29T22:06:32;14.70;99.90
31809;DHT22;18379;48.208;-1.518;2023-05-29T22:11:33;14.50;99.90
31809;DHT22;18379;48.208;-1.518;2023-05-29T22:16:34;14.40;99.90
31809;DHT22;18379;48.208;-1.518;2023-05-29T22:21:35;14.30;99.90
31809;DHT22;18379;48.208;-1.518;2023-05-29T22:26:36;14.20;99.90
31809;DHT22;18379;48.208;-1.518;2023-05-29T22:31:37;14.10;99.90
31809;DHT22;18379;48.208;-1.518;2023-05-29T22:36:38;14.00;99.90
31809;DHT22;18379;48.208;-1.518;2023-05-29T22:41:39;13.90;99.90
31809;DHT22;18379;48.208;-1.518;2023-05-29T22:46:40;13.80;99.90
31809;DHT22;18379;48.208;-1.518;2023-05-29T22:51:40;13.70;99.90
31809;DHT22;18379;48.208;-1.518;2023-05-29T22:56:41;13.60;99.90
31809;DHT22;18379;48.208;-1.518;2023-05-29T23:06:45;13.50;99.90
31809;DHT22;18379;48.208;-1.518;2023-05-29T23:11:49;13.50;99.90
31809;DHT22;18379;48.208;-1.518;2023-05-29T23:16:51;13.50;99.90
31809;DHT22;18379;48.208;-1.518;2023-05-29T23:21:54;13.40;99.90
31809;DHT22;18379;48.208;-1.518;2023-05-29T23:26:55;13.40;99.90
31809;DHT22;18379;48.208;-1.518;2023-05-29T23:31:55;13.40;99.90
31809;DHT22;18379;48.208;-1.518;2023-05-29T23:36:56;13.30;99.90
31809;DHT22;18379;48.208;-1.518;2023-05-29T23:42:01;13.20;99.90
31809;DHT22;18379;48.208;-1.518;2023-05-29T23:47:03;13.10;99.90
31809;DHT22;18379;48.208;-1.518;2023-05-29T23:52:04;13.10;99.90
31809;DHT22;18379;48.208;-1.518;2023-05-29T23:57:06;13.10;99.90
